createdAt,value
2022-08-05T00:00:25.910Z,100739.81
2022-08-05T00:02:57.551Z,100732.81
2022-08-05T00:06:06.585Z,100721.88
2022-08-05T00:08:35.410Z,100735.19
2022-08-05T00:11:20.776Z,100737.66
2022-08-05T00:13:59.613Z,100757.19
2022-08-05T00:16:35.910Z,100755.09
2022-08-05T00:19:24.790Z,100760.91
2022-08-05T00:21:56.693Z,100763.84
2022-08-05T00:24:30.686Z,100761.34
2022-08-05T00:27:04.742Z,100758.81
2022-08-05T00:29:42.522Z,100762.50
2022-08-05T00:32:15.297Z,100762.03
2022-08-05T00:35:04.581Z,100768.25
2022-08-05T00:37:52.964Z,100763.66
2022-08-05T00:40:29.214Z,100771.06
2022-08-05T00:43:07.557Z,100706.13
2022-08-05T00:45:43.610Z,100771.00
2022-08-05T00:48:18.267Z,100749.38
2022-08-05T00:50:59.161Z,100763.84
2022-08-05T00:53:59.974Z,100758.44
2022-08-05T00:56:22.936Z,100761.72
2022-08-05T00:58:54.960Z,100738.47
2022-08-05T01:01:48.326Z,100766.88
2022-08-05T01:04:20.185Z,100764.31
2022-08-05T01:06:57.943Z,100757.88
2022-08-05T01:09:30.589Z,100763.22
2022-08-05T01:12:18.293Z,100763.63
2022-08-05T01:15:35.434Z,100781.97
2022-08-05T01:18:11.046Z,100795.59
2022-08-05T01:21:04.047Z,100791.47
2022-08-05T01:23:35.113Z,100794.97
2022-08-05T01:26:30.549Z,100790.75
2022-08-05T01:29:42.955Z,100746.66
2022-08-05T01:32:18.837Z,100783.84
2022-08-05T01:34:59.094Z,100790.66
2022-08-05T01:37:47.950Z,100792.09
2022-08-05T01:40:27.928Z,100796.81
2022-08-05T01:43:04.171Z,100724.59
2022-08-05T01:45:43.041Z,100780.75
2022-08-05T01:48:16.861Z,100787.38
2022-08-05T01:50:51.030Z,100760.34
2022-08-05T01:53:54.696Z,100782.13
2022-08-05T01:58:10.722Z,100710.16
2022-08-05T01:59:14.040Z,100767.38
2022-08-05T02:01:49.323Z,100769.34
2022-08-05T02:04:22.427Z,100774.53
2022-08-05T02:06:55.633Z,100742.31
2022-08-05T02:09:28.697Z,100758.44
2022-08-05T02:12:10.986Z,100758.66
2022-08-05T02:14:47.933Z,100764.22
2022-08-05T02:18:31.380Z,100768.59
2022-08-05T02:20:32.600Z,100773.56
2022-08-05T02:23:13.537Z,100749.16
2022-08-05T02:25:49.333Z,100755.34
2022-08-05T02:28:36.456Z,100740.22
2022-08-05T02:31:39.066Z,100745.88
2022-08-05T02:34:15.338Z,100746.94
2022-08-05T02:37:04.556Z,100684.38
2022-08-05T02:39:41.317Z,100688.41
2022-08-05T02:42:25.857Z,100716.13
2022-08-05T02:45:00.815Z,100740.75
2022-08-05T02:48:07.531Z,100620.06
2022-08-05T02:50:29.685Z,100623.94
2022-08-05T02:53:02.348Z,100733.34
2022-08-05T02:55:53.983Z,100735.63
2022-08-05T02:58:29.995Z,100684.44
2022-08-05T03:01:05.427Z,100735.75
2022-08-05T03:04:02.194Z,100735.28
2022-08-05T03:06:55.219Z,100733.44
2022-08-05T03:09:36.373Z,100737.56
2022-08-05T03:12:10.500Z,100730.63
2022-08-05T03:14:46.166Z,100731.44
2022-08-05T03:17:20.428Z,100732.66
2022-08-05T03:19:53.695Z,100714.34
2022-08-05T03:22:32.310Z,100714.34
2022-08-05T03:25:31.537Z,100718.84
2022-08-05T03:28:00.515Z,100655.09
2022-08-05T03:30:36.656Z,100723.94
2022-08-05T03:33:09.905Z,100722.91
2022-08-05T03:35:41.882Z,100703.69
2022-08-05T03:38:14.894Z,100708.66
2022-08-05T03:40:48.766Z,100640.34
2022-08-05T03:44:09.269Z,100701.94
2022-08-05T03:46:13.292Z,100706.31
2022-08-05T03:48:45.330Z,100694.41
2022-08-05T03:52:37.709Z,100703.38
2022-08-05T03:55:54.082Z,100699.47
2022-08-05T03:57:41.973Z,100686.13
2022-08-05T04:00:17.578Z,100640.50
2022-08-05T04:02:58.582Z,100699.84
2022-08-05T04:05:34.439Z,100651.81
2022-08-05T04:08:14.811Z,100693.81
2022-08-05T04:11:04.959Z,100668.22
2022-08-05T04:13:50.305Z,100699.63
2022-08-05T04:16:24.382Z,100694.56
2022-08-05T04:18:57.976Z,100670.00
2022-08-05T04:22:10.286Z,100681.34
2022-08-05T04:24:23.702Z,100667.06
2022-08-05T04:26:59.050Z,100683.56
2022-08-05T04:29:32.236Z,100677.56
2022-08-05T04:32:04.371Z,100676.03
2022-08-05T04:34:39.660Z,100676.84
2022-08-05T04:37:14.749Z,100667.41
2022-08-05T04:39:52.944Z,100676.38
2022-08-05T04:42:27.285Z,100671.81
2022-08-05T04:44:58.510Z,100666.59
2022-08-05T04:47:42.921Z,100640.63
2022-08-05T04:50:34.522Z,100655.53
2022-08-05T04:53:12.087Z,100653.84
2022-08-05T04:56:14.874Z,100656.34
2022-08-05T04:58:36.935Z,100643.59
2022-08-05T05:01:08.989Z,100642.28
2022-08-05T05:03:42.335Z,100642.25
2022-08-05T05:06:39.000Z,100589.19
2022-08-05T05:09:08.432Z,100631.19
2022-08-05T05:11:52.921Z,100615.03
2022-08-05T05:14:31.830Z,100621.53
2022-08-05T05:17:07.569Z,100627.28
2022-08-05T05:19:47.301Z,100618.31
2022-08-05T05:22:23.924Z,100622.47
2022-08-05T05:25:00.350Z,100611.34
2022-08-05T05:27:45.741Z,100613.50
2022-08-05T05:30:31.325Z,100595.06
2022-08-05T05:33:14.097Z,100567.72
2022-08-05T05:35:49.823Z,100599.09
2022-08-05T05:38:27.441Z,100607.81
2022-08-05T05:40:59.337Z,100605.69
2022-08-05T05:43:58.071Z,100604.88
2022-08-05T05:46:22.229Z,100598.63
2022-08-05T05:48:53.595Z,100594.84
2022-08-05T05:51:27.866Z,100539.84
2022-08-05T05:54:00.571Z,100557.94
2022-08-05T05:56:34.962Z,100569.34
2022-08-05T05:59:09.561Z,100552.34
2022-08-05T06:01:57.705Z,100571.09
2022-08-05T06:04:29.580Z,100546.66
2022-08-05T06:07:01.599Z,100546.88
2022-08-05T06:10:01.556Z,100547.22
2022-08-05T06:12:24.440Z,100547.81
2022-08-05T06:14:58.851Z,100535.66
2022-08-05T06:17:31.828Z,100520.56
2022-08-05T06:20:23.386Z,100528.91
2022-08-05T06:22:54.705Z,100533.53
2022-08-05T06:26:13.878Z,100518.06
2022-08-05T06:28:21.793Z,100513.81
2022-08-05T06:30:53.379Z,100516.59
2022-08-05T06:33:33.448Z,100514.47
2022-08-05T06:36:17.947Z,100481.66
2022-08-05T06:38:57.790Z,100495.53
2022-08-05T06:41:29.665Z,100451.72
2022-08-05T06:44:06.334Z,100482.41
2022-08-05T06:46:37.661Z,100466.25
2022-08-05T06:49:09.213Z,100470.25
2022-08-05T06:51:43.835Z,100464.31
2022-08-05T06:54:18.958Z,100457.25
2022-08-05T06:56:54.736Z,100447.50
2022-08-05T06:59:26.560Z,100451.91
2022-08-05T07:01:59.091Z,100437.81
2022-08-05T07:04:30.544Z,100443.25
2022-08-05T07:07:02.072Z,100432.88
2022-08-05T07:09:40.408Z,100439.53
2022-08-05T07:12:34.274Z,100427.59
2022-08-05T07:15:34.602Z,100432.53
2022-08-05T07:18:27.040Z,100439.22
2022-08-05T07:21:04.675Z,100430.28
2022-08-05T07:23:37.257Z,100421.00
2022-08-05T07:26:22.870Z,100412.09
2022-08-05T07:28:57.203Z,100415.66
2022-08-05T07:31:53.943Z,100395.38
2022-08-05T07:34:28.361Z,100407.81
2022-08-05T07:36:59.971Z,100409.78
2022-08-05T07:40:04.362Z,100407.63
2022-08-05T07:42:31.761Z,100388.69
2022-08-05T07:45:07.756Z,100396.53
2022-08-05T07:47:42.485Z,100391.06
2022-08-05T07:50:16.541Z,100385.31
2022-08-05T07:52:48.171Z,100368.59
2022-08-05T07:56:05.004Z,100377.47
2022-08-05T07:58:55.048Z,100375.19
2022-08-05T08:01:06.137Z,100374.16
2022-08-05T08:03:44.345Z,100373.44
2022-08-05T08:06:17.399Z,100377.78
2022-08-05T08:08:48.756Z,100376.47
2022-08-05T08:11:27.574Z,100376.78
2022-08-05T08:14:12.216Z,100366.16
2022-08-05T08:16:51.416Z,100325.00
2022-08-05T08:20:21.587Z,100354.69
2022-08-05T08:22:17.640Z,100367.03
2022-08-05T08:24:51.824Z,100371.97
2022-08-05T08:27:24.159Z,100369.84
2022-08-05T08:30:20.160Z,100350.16
2022-08-05T08:33:13.935Z,100373.09
2022-08-05T08:35:53.896Z,100362.72
2022-08-05T08:38:37.687Z,100310.50
2022-08-05T08:41:09.847Z,100369.25
2022-08-05T08:45:22.447Z,100304.66
2022-08-05T08:46:35.059Z,100363.63
2022-08-05T08:50:06.225Z,100313.22
2022-08-05T08:52:14.622Z,100321.09
2022-08-05T08:54:48.939Z,100368.63
2022-08-05T08:57:21.166Z,100364.00
2022-08-05T08:59:56.127Z,100363.16
2022-08-05T09:02:29.720Z,100368.38
2022-08-05T09:05:17.559Z,100370.13
2022-08-05T09:07:57.800Z,100359.91
2022-08-05T09:10:30.697Z,100359.63
2022-08-05T09:13:04.957Z,100377.28
2022-08-05T09:15:37.315Z,100383.88
2022-08-05T09:18:13.512Z,100385.75
2022-08-05T09:20:47.330Z,100379.50
2022-08-05T09:23:28.755Z,100360.28
2022-08-05T09:26:22.220Z,100407.22
2022-08-05T09:29:01.178Z,100293.47
2022-08-05T09:32:40.631Z,100409.19
2022-08-05T09:34:26.742Z,100406.72
2022-08-05T09:36:59.449Z,100387.41
2022-08-05T09:39:44.827Z,100403.44
2022-08-05T09:42:28.171Z,100416.72
2022-08-05T09:46:04.960Z,100406.09
2022-08-05T09:48:01.436Z,100403.69
2022-08-05T09:50:44.032Z,100335.97
2022-08-05T09:53:25.763Z,100403.44
2022-08-05T09:56:12.966Z,100390.19
2022-08-05T09:58:57.340Z,100418.91
2022-08-05T10:01:31.844Z,100414.81
2022-08-05T10:04:10.519Z,100423.22
2022-08-05T10:06:58.910Z,100420.94
2022-08-05T10:09:45.023Z,100424.88
2022-08-05T10:12:18.789Z,100424.06
2022-08-05T10:15:20.868Z,100421.47
2022-08-05T10:18:18.804Z,100424.75
2022-08-05T10:20:58.618Z,100384.16
2022-08-05T10:24:00.150Z,100455.31
2022-08-05T10:26:33.853Z,100451.47
2022-08-05T10:29:05.671Z,100467.34
2022-08-05T10:32:55.378Z,100474.06
2022-08-05T10:34:31.022Z,100484.75
2022-08-05T10:37:03.825Z,100499.00
2022-08-05T10:40:03.730Z,100496.44
2022-08-05T10:42:43.686Z,100492.78
2022-08-05T10:45:23.622Z,100432.59
2022-08-05T10:48:36.087Z,100496.16
2022-08-05T10:51:28.566Z,100510.09
2022-08-05T10:54:05.762Z,100522.63
2022-08-05T10:56:53.062Z,100462.41
2022-08-05T11:00:03.644Z,100527.94
2022-08-05T11:02:37.490Z,100522.19
2022-08-05T11:05:13.609Z,100512.94
2022-08-05T11:08:37.443Z,100517.72
2022-08-05T11:11:52.417Z,100522.94
2022-08-05T11:15:01.555Z,100473.19
2022-08-05T11:17:58.034Z,100545.38
2022-08-05T11:20:43.630Z,100560.13
2022-08-05T11:23:57.700Z,100489.72
2022-08-05T11:26:28.836Z,100559.16
2022-08-05T11:29:13.232Z,100539.72
2022-08-05T11:31:57.686Z,100556.94
2022-08-05T11:34:51.372Z,100499.03
2022-08-05T11:38:28.730Z,100576.19
2022-08-05T11:41:03.385Z,100577.94
2022-08-05T11:44:40.237Z,100586.91
2022-08-05T11:47:10.502Z,100590.38
2022-08-05T11:49:49.871Z,100586.59
2022-08-05T11:52:29.193Z,100539.63
2022-08-05T11:55:07.749Z,100601.22
2022-08-05T11:58:10.690Z,100547.19
2022-08-05T12:00:41.171Z,100598.84
2022-08-05T12:03:29.374Z,100614.06
2022-08-05T12:06:06.421Z,100620.13
2022-08-05T12:08:55.547Z,100620.22
2022-08-05T12:11:40.410Z,100621.63
2022-08-05T12:14:13.185Z,100622.84
2022-08-05T12:16:48.308Z,100542.47
2022-08-05T12:20:26.092Z,100625.19
2022-08-05T12:22:14.106Z,100626.00
2022-08-05T12:24:54.492Z,100631.56
2022-08-05T12:27:35.710Z,100619.88
2022-08-05T12:30:32.185Z,100649.97
2022-08-05T12:33:07.190Z,100659.63
2022-08-05T12:35:55.087Z,100672.72
2022-08-05T12:38:31.459Z,100661.38
2022-08-05T12:41:02.959Z,100670.03
2022-08-05T12:43:34.826Z,100666.81
2022-08-05T12:46:29.130Z,100661.72
2022-08-05T12:49:13.644Z,100660.19
2022-08-05T12:52:12.603Z,100659.00
2022-08-05T12:54:47.634Z,100600.72
2022-08-05T12:57:23.407Z,100673.88
2022-08-05T13:01:56.700Z,100698.91
2022-08-05T13:02:50.968Z,100689.34
2022-08-05T13:05:33.837Z,100700.56
2022-08-05T13:08:09.981Z,100706.50
2022-08-05T13:10:50.570Z,100714.78
2022-08-05T13:14:04.814Z,100708.41
2022-08-05T13:16:18.813Z,100710.66
2022-08-05T13:18:58.732Z,100720.94
2022-08-05T13:21:38.015Z,100719.16
2022-08-05T13:24:44.881Z,100661.63
2022-08-05T13:27:42.362Z,100670.81
2022-08-05T13:30:34.137Z,100725.84
2022-08-05T13:33:07.886Z,100730.25
2022-08-05T13:35:47.190Z,100738.47
2022-08-05T13:38:30.197Z,100744.28
2022-08-05T13:41:02.920Z,100756.06
2022-08-05T13:43:45.064Z,100763.72
2022-08-05T13:46:43.631Z,100777.88
2022-08-05T13:49:17.099Z,100788.16
2022-08-05T13:51:48.897Z,100794.66
2022-08-05T13:54:24.986Z,100794.56
2022-08-05T13:56:57.210Z,100801.13
2022-08-05T13:59:30.758Z,100805.44
2022-08-05T14:02:03.065Z,100810.34
2022-08-05T14:05:00.724Z,100813.97
2022-08-05T14:07:59.994Z,100802.09
2022-08-05T14:10:32.563Z,100826.63
2022-08-05T14:13:04.443Z,100807.22
2022-08-05T14:16:09.286Z,100818.44
2022-08-05T14:18:28.906Z,100824.59
2022-08-05T14:21:00.331Z,100819.81
2022-08-05T14:23:51.606Z,100828.63
2022-08-05T14:26:35.692Z,100834.91
2022-08-05T14:29:16.452Z,100836.59
2022-08-05T14:32:02.803Z,100839.56
2022-08-05T14:34:40.718Z,100844.59
2022-08-05T14:37:13.287Z,100844.63
2022-08-05T14:39:49.923Z,100844.00
2022-08-05T14:42:28.624Z,100853.38
2022-08-05T14:45:00.524Z,100791.22
2022-08-05T14:48:03.961Z,100847.22
2022-08-05T14:50:25.196Z,100849.34
2022-08-05T14:52:58.526Z,100843.50
2022-08-05T14:55:39.637Z,100832.75
2022-08-05T14:58:13.879Z,100855.66
2022-08-05T15:00:59.253Z,100855.03
2022-08-05T15:03:39.156Z,100854.22
2022-08-05T15:06:15.534Z,100786.41
2022-08-05T15:09:01.072Z,100856.94
2022-08-05T15:11:51.539Z,100857.81
2022-08-05T15:14:35.753Z,100858.63
2022-08-05T15:17:45.498Z,100857.19
2022-08-05T15:20:09.789Z,100791.84
2022-08-05T15:22:52.144Z,100858.47
2022-08-05T15:25:51.316Z,100851.59
2022-08-05T15:28:19.134Z,100847.03
2022-08-05T15:30:53.612Z,100845.59
2022-08-05T15:34:04.545Z,100836.22
2022-08-05T15:36:24.507Z,100824.59
2022-08-05T15:41:00.836Z,100816.06
2022-08-05T15:41:57.267Z,100806.38
2022-08-05T15:44:31.037Z,100810.72
2022-08-05T15:47:03.665Z,100703.69
2022-08-05T15:49:48.203Z,100816.13
2022-08-05T15:52:53.871Z,100822.59
2022-08-05T15:55:25.055Z,100824.25
2022-08-05T15:58:16.518Z,100812.44
2022-08-05T16:00:50.979Z,100819.25
2022-08-05T16:03:44.957Z,100809.50
2022-08-05T16:06:22.786Z,100806.81
2022-08-05T16:08:55.486Z,100801.78
2022-08-05T16:11:42.430Z,100792.66
2022-08-05T16:14:17.280Z,100783.53
2022-08-05T16:16:49.225Z,100794.13
2022-08-05T16:20:02.909Z,100794.34
2022-08-05T16:22:15.304Z,100792.47
2022-08-05T16:24:51.232Z,100789.88
2022-08-05T16:27:32.332Z,100786.69
2022-08-05T16:30:23.247Z,100782.94
2022-08-05T16:32:57.336Z,100779.78
2022-08-05T16:35:32.471Z,100779.97
2022-08-05T16:38:18.515Z,100766.25
2022-08-05T16:41:01.879Z,100689.16
2022-08-05T16:43:56.327Z,100791.22
2022-08-05T16:46:28.564Z,100776.91
2022-08-05T16:49:00.062Z,100779.53
2022-08-05T16:51:42.400Z,100785.41
2022-08-05T16:54:28.602Z,100767.53
2022-08-05T16:57:01.993Z,100770.44
2022-08-05T16:59:33.746Z,100744.75
2022-08-05T17:02:25.342Z,100763.16
2022-08-05T17:04:59.494Z,100765.03
2022-08-05T17:07:43.824Z,100767.13
2022-08-05T17:10:22.409Z,100745.81
2022-08-05T17:12:58.126Z,100752.41
2022-08-05T17:15:48.937Z,100729.81
2022-08-05T17:18:21.061Z,100738.69
2022-08-05T17:20:53.262Z,100730.19
2022-08-05T17:24:05.887Z,100731.66
2022-08-05T17:26:17.468Z,100726.66
2022-08-05T17:28:48.120Z,100722.47
2022-08-05T17:31:24.312Z,100723.22
2022-08-05T17:34:12.103Z,100725.91
2022-08-05T17:36:49.472Z,100716.13
2022-08-05T17:39:23.972Z,100712.84
2022-08-05T17:42:20.234Z,100710.13
2022-08-05T17:44:50.328Z,100707.44
2022-08-05T17:47:24.206Z,100698.34
2022-08-05T17:50:04.116Z,100708.28
2022-08-05T17:52:53.391Z,100701.22
2022-08-05T17:55:27.208Z,100695.63
2022-08-05T17:58:01.924Z,100699.97
2022-08-05T18:00:34.185Z,100687.94
2022-08-05T18:03:07.992Z,100680.50
2022-08-05T18:05:40.500Z,100683.81
2022-08-05T18:08:12.826Z,100676.75
2022-08-05T18:10:44.030Z,100688.00
2022-08-05T18:13:15.937Z,100676.75
2022-08-05T18:15:47.211Z,100672.59
2022-08-05T18:18:20.617Z,100670.94
2022-08-05T18:20:52.303Z,100668.59
2022-08-05T18:23:26.159Z,100663.66
2022-08-05T18:26:02.335Z,100661.59
2022-08-05T18:28:34.145Z,100658.06
2022-08-05T18:31:07.472Z,100643.53
2022-08-05T18:33:47.281Z,100622.78
2022-08-05T18:36:27.852Z,100625.50
2022-08-05T18:38:59.652Z,100623.19
2022-08-05T18:41:57.572Z,100625.31
2022-08-05T18:44:33.118Z,100623.63
2022-08-05T18:47:07.334Z,100614.94
2022-08-05T18:49:57.950Z,100614.50
2022-08-05T18:52:50.760Z,100612.78
2022-08-05T18:55:22.928Z,100608.09
2022-08-05T18:58:03.027Z,100529.53
2022-08-05T19:00:35.374Z,100599.56
2022-08-05T19:03:06.767Z,100597.47
2022-08-05T19:06:11.209Z,100605.59
2022-08-05T19:08:30.075Z,100609.16
2022-08-05T19:11:05.205Z,100588.00
2022-08-05T19:13:38.847Z,100587.56
2022-08-05T19:16:25.324Z,100587.13
2022-08-05T19:19:01.102Z,100583.78
2022-08-05T19:21:34.573Z,100574.28
2022-08-05T19:24:12.589Z,100581.34
2022-08-05T19:26:54.691Z,100568.94
2022-08-05T19:29:36.470Z,100578.81
2022-08-05T19:32:11.380Z,100564.97
2022-08-05T19:34:54.661Z,100560.59
2022-08-05T19:37:35.212Z,100573.84
2022-08-05T19:40:18.876Z,100567.97
2022-08-05T19:43:04.877Z,100566.00
2022-08-05T19:45:37.332Z,100563.09
2022-08-05T19:48:14.541Z,100527.03
2022-08-05T19:50:46.229Z,100554.44
2022-08-05T19:53:17.536Z,100552.13
2022-08-05T19:56:14.546Z,100556.03
2022-08-05T19:58:53.398Z,100545.34
2022-08-05T20:01:28.183Z,100544.84
2022-08-05T20:04:00.522Z,100552.75
2022-08-05T20:06:37.570Z,100554.44
2022-08-05T20:09:17.300Z,100559.84
2022-08-05T20:11:48.739Z,100549.44
2022-08-05T20:14:27.065Z,100566.88
2022-08-05T20:17:00.873Z,100560.66
2022-08-05T20:19:36.217Z,100560.22
2022-08-05T20:22:19.258Z,100563.56
2022-08-05T20:24:51.953Z,100557.78
2022-08-05T20:27:41.550Z,100554.84
2022-08-05T20:30:14.054Z,100544.88
2022-08-05T20:32:49.744Z,100542.78
2022-08-05T20:35:22.846Z,100531.41
2022-08-05T20:38:05.610Z,100541.97
2022-08-05T20:40:38.446Z,100541.97
2022-08-05T20:43:14.635Z,100549.69
2022-08-05T20:45:56.178Z,100556.53
2022-08-05T20:48:28.475Z,100560.72
2022-08-05T20:50:59.930Z,100557.41
2022-08-05T20:53:40.883Z,100553.66
2022-08-05T20:56:12.584Z,100549.50
2022-08-05T20:58:45.028Z,100532.09
2022-08-05T21:01:16.376Z,100558.22
2022-08-05T21:03:48.855Z,100547.47
2022-08-05T21:06:27.876Z,100545.78
2022-08-05T21:09:00.421Z,100546.84
2022-08-05T21:12:10.242Z,100546.66
2022-08-05T21:14:23.673Z,100541.25
2022-08-05T21:16:57.952Z,100526.34
2022-08-05T21:19:29.203Z,100540.63
2022-08-05T21:22:23.346Z,100543.13
2022-08-05T21:24:58.362Z,100552.28
2022-08-05T21:27:38.873Z,100541.06
2022-08-05T21:30:17.307Z,100525.09
2022-08-05T21:32:49.560Z,100542.94
2022-08-05T21:35:30.095Z,100549.16
2022-08-05T21:38:14.875Z,100550.84
2022-08-05T21:40:48.630Z,100534.50
2022-08-05T21:43:24.882Z,100550.84
2022-08-05T21:46:00.187Z,100559.16
2022-08-05T21:48:32.030Z,100549.41
2022-08-05T21:51:25.277Z,100519.59
2022-08-05T21:53:59.488Z,100563.94
2022-08-05T21:56:35.361Z,100572.47
2022-08-05T21:59:22.549Z,100544.88
2022-08-05T22:01:56.897Z,100568.94
2022-08-05T22:04:28.355Z,100570.81
2022-08-05T22:07:00.145Z,100576.84
2022-08-05T22:09:46.068Z,100579.53
2022-08-05T22:12:18.691Z,100576.00
2022-08-05T22:14:58.507Z,100572.88
2022-08-05T22:17:31.226Z,100567.50
2022-08-05T22:20:16.417Z,100571.22
2022-08-05T22:23:17.091Z,100578.28
2022-08-05T22:26:14.952Z,100567.91
2022-08-05T22:28:47.005Z,100571.25
2022-08-05T22:31:21.339Z,100580.78
2022-08-05T22:33:57.134Z,100560.88
2022-08-05T22:36:31.811Z,100572.88
2022-08-05T22:39:09.078Z,100584.34
2022-08-05T22:42:09.875Z,100594.06
2022-08-05T22:44:32.984Z,100601.97
2022-08-05T22:47:06.602Z,100588.69
2022-08-05T22:50:19.839Z,100599.88
2022-08-05T22:52:32.345Z,100606.13
2022-08-05T22:55:19.021Z,100553.41
2022-08-05T22:57:55.598Z,100583.47
2022-08-05T23:00:29.810Z,100591.56
2022-08-05T23:03:04.188Z,100583.28
2022-08-05T23:05:36.413Z,100570.84
2022-08-05T23:08:11.430Z,100595.94
2022-08-05T23:10:44.412Z,100588.66
2022-08-05T23:13:15.747Z,100600.72
2022-08-05T23:15:50.329Z,100603.00
2022-08-05T23:18:22.930Z,100565.22
2022-08-05T23:20:54.446Z,100612.66
2022-08-05T23:23:25.872Z,100617.19
2022-08-05T23:26:01.255Z,100604.28
2022-08-05T23:28:33.975Z,100624.56
2022-08-05T23:31:17.311Z,100622.44
2022-08-05T23:34:03.781Z,100625.75
2022-08-05T23:36:44.398Z,100614.69
2022-08-05T23:39:23.748Z,100617.72
2022-08-05T23:42:05.089Z,100614.78
2022-08-05T23:44:40.340Z,100604.78
2022-08-05T23:47:15.497Z,100607.22
2022-08-05T23:49:48.329Z,100611.72
2022-08-05T23:52:35.874Z,100604.31
2022-08-05T23:55:10.928Z,100605.16
2022-08-05T23:57:44.381Z,100613.06
